createdAt,value
2023-02-13T00:00:25.472Z,4.20
2023-02-13T00:02:47.152Z,5.10
2023-02-13T00:05:08.658Z,3.90
2023-02-13T00:07:30.084Z,3.83
2023-02-13T00:09:51.529Z,3.70
2023-02-13T00:12:12.951Z,3.60
2023-02-13T00:14:39.381Z,4.00
2023-02-13T00:17:00.874Z,3.60
2023-02-13T00:19:22.370Z,3.60
2023-02-13T00:21:43.852Z,3.53
2023-02-13T00:24:05.773Z,3.83
2023-02-13T00:26:27.253Z,4.60
2023-02-13T00:28:48.895Z,5.27
2023-02-13T00:31:13.083Z,5.70
2023-02-13T00:33:34.928Z,5.53
2023-02-13T00:36:06.556Z,4.43
2023-02-13T00:38:30.083Z,4.07
2023-02-13T00:40:51.524Z,4.27
2023-02-13T00:43:12.927Z,5.03
2023-02-13T00:45:34.362Z,4.23
2023-02-13T00:47:55.861Z,4.97
2023-02-13T00:50:17.446Z,4.20
2023-02-13T00:52:39.229Z,4.77
2023-02-13T00:55:00.727Z,5.40
2023-02-13T00:57:22.255Z,5.50
2023-02-13T00:59:43.712Z,5.07
2023-02-13T01:02:05.234Z,5.10
2023-02-13T01:04:26.699Z,4.73
2023-02-13T01:06:48.130Z,6.30
2023-02-13T01:09:09.639Z,5.50
2023-02-13T01:11:31.159Z,5.20
2023-02-13T01:13:52.638Z,6.67
2023-02-13T01:16:16.034Z,6.07
2023-02-13T01:18:37.589Z,6.20
2023-02-13T01:21:02.880Z,7.53
2023-02-13T01:23:24.522Z,8.17
2023-02-13T01:25:46.002Z,6.87
2023-02-13T01:28:07.541Z,8.37
2023-02-13T01:30:28.995Z,7.40
2023-02-13T01:32:50.466Z,7.17
2023-02-13T01:35:13.353Z,4.90
2023-02-13T01:37:34.826Z,4.97
2023-02-13T01:39:56.439Z,6.40
2023-02-13T01:42:25.124Z,7.30
2023-02-13T01:45:09.553Z,8.33
2023-02-13T01:47:47.405Z,9.23
2023-02-13T01:50:28.784Z,5.80
2023-02-13T01:53:05.053Z,7.33
2023-02-13T01:55:27.965Z,6.87
2023-02-13T01:57:57.623Z,5.83
2023-02-13T02:00:19.587Z,5.83
2023-02-13T02:02:46.814Z,4.83
2023-02-13T02:05:09.050Z,5.03
2023-02-13T02:07:31.794Z,4.43
2023-02-13T02:09:58.652Z,5.03
2023-02-13T02:12:42.237Z,5.53
2023-02-13T02:15:06.267Z,5.00
2023-02-13T02:17:28.130Z,5.37
2023-02-13T02:20:12.752Z,5.10
2023-02-13T02:22:58.256Z,5.07
2023-02-13T02:25:43.912Z,4.00
2023-02-13T02:28:29.970Z,4.47
2023-02-13T02:31:38.789Z,3.87
2023-02-13T02:34:19.120Z,4.47
2023-02-13T02:36:52.427Z,4.50
2023-02-13T02:39:49.386Z,4.23
2023-02-13T02:42:25.724Z,4.77
2023-02-13T02:45:13.044Z,4.20
2023-02-13T02:48:08.425Z,4.27
2023-02-13T02:50:46.368Z,3.63
2023-02-13T02:53:10.800Z,4.07
2023-02-13T02:55:41.491Z,4.10
2023-02-13T02:58:36.752Z,4.47
2023-02-13T03:01:19.339Z,4.10
2023-02-13T03:03:59.522Z,3.90
2023-02-13T03:06:29.996Z,3.97
2023-02-13T03:09:16.233Z,3.90
2023-02-13T03:11:57.770Z,3.90
2023-02-13T03:14:20.889Z,3.60
2023-02-13T03:17:01.231Z,3.77
2023-02-13T03:20:02.267Z,3.70
2023-02-13T03:22:55.990Z,3.50
2023-02-13T03:25:37.412Z,3.67
2023-02-13T03:28:20.038Z,3.37
2023-02-13T03:30:51.526Z,3.23
2023-02-13T03:33:18.912Z,3.63
2023-02-13T03:36:26.456Z,3.13
2023-02-13T03:38:54.384Z,3.00
2023-02-13T03:41:27.795Z,3.47
2023-02-13T03:43:58.265Z,3.70
2023-02-13T03:46:20.679Z,3.37
2023-02-13T03:49:02.073Z,3.63
2023-02-13T03:51:36.605Z,3.43
2023-02-13T03:54:02.397Z,4.03
2023-02-13T03:56:44.968Z,3.67
2023-02-13T03:59:16.321Z,3.87
2023-02-13T04:01:39.377Z,3.63
2023-02-13T04:04:09.865Z,4.03
2023-02-13T04:06:43.960Z,4.23
2023-02-13T04:09:05.432Z,4.20
2023-02-13T04:11:45.532Z,4.07
2023-02-13T04:14:22.766Z,4.30
2023-02-13T04:16:49.446Z,5.63
2023-02-13T04:19:11.896Z,4.43
2023-02-13T04:21:38.685Z,4.13
2023-02-13T04:24:00.128Z,4.37
2023-02-13T04:26:23.543Z,4.63
2023-02-13T04:28:45.344Z,4.93
2023-02-13T04:31:06.921Z,4.97
2023-02-13T04:33:28.486Z,5.37
2023-02-13T04:35:49.920Z,5.73
2023-02-13T04:38:11.419Z,7.43
2023-02-13T04:40:33.173Z,6.73
2023-02-13T04:42:54.732Z,6.63
2023-02-13T04:45:17.485Z,7.03
2023-02-13T04:47:38.955Z,7.57
2023-02-13T04:50:00.434Z,7.03
2023-02-13T04:52:21.944Z,6.33
2023-02-13T04:54:43.380Z,5.93
2023-02-13T04:57:04.859Z,6.57
2023-02-13T04:59:26.365Z,6.80
2023-02-13T05:01:47.856Z,6.43
2023-02-13T05:04:11.213Z,5.53
2023-02-13T05:06:32.744Z,7.77
2023-02-13T05:08:54.208Z,11.60
2023-02-13T05:11:15.669Z,11.03
2023-02-13T05:13:37.147Z,10.97
2023-02-13T05:15:58.681Z,8.17
2023-02-13T05:18:20.328Z,5.83
2023-02-13T05:20:41.970Z,5.47
2023-02-13T05:23:22.016Z,5.37
2023-02-13T05:25:43.490Z,4.97
2023-02-13T05:28:05.634Z,5.53
2023-02-13T05:30:27.273Z,5.40
2023-02-13T05:32:50.845Z,5.03
2023-02-13T05:35:12.299Z,5.77
2023-02-13T05:37:33.775Z,5.17
2023-02-13T05:39:55.191Z,5.63
2023-02-13T05:42:16.664Z,6.03
2023-02-13T05:44:38.164Z,5.63
2023-02-13T05:46:59.778Z,6.07
2023-02-13T05:49:21.239Z,6.50
2023-02-13T05:51:43.492Z,6.00
2023-02-13T05:54:05.060Z,5.67
2023-02-13T05:56:26.663Z,5.70
2023-02-13T05:58:51.096Z,6.77
2023-02-13T06:01:12.695Z,7.97
2023-02-13T06:03:34.313Z,15.30
2023-02-13T06:05:56.193Z,12.00
2023-02-13T06:08:17.720Z,14.37
2023-02-13T06:10:39.146Z,10.30
2023-02-13T06:13:00.761Z,6.77
2023-02-13T06:15:22.178Z,7.23
2023-02-13T06:17:43.644Z,7.73
2023-02-13T06:20:06.711Z,7.70
2023-02-13T06:22:28.150Z,8.23
2023-02-13T06:24:49.636Z,7.87
2023-02-13T06:27:11.101Z,9.20
2023-02-13T06:29:33.006Z,24.83
2023-02-13T06:31:54.491Z,33.63
2023-02-13T06:34:15.958Z,12.00
2023-02-13T06:36:38.451Z,9.67
2023-02-13T06:39:00.131Z,13.23
2023-02-13T06:41:21.570Z,6.07
2023-02-13T06:43:43.197Z,6.17
2023-02-13T06:46:06.114Z,6.37
2023-02-13T06:48:27.570Z,5.93
2023-02-13T06:50:49.046Z,7.00
2023-02-13T06:53:10.670Z,6.27
2023-02-13T06:55:32.169Z,6.47
2023-02-13T06:57:53.649Z,6.80
2023-02-13T07:00:16.673Z,6.67
2023-02-13T07:02:38.164Z,6.33
2023-02-13T07:04:59.639Z,6.80
2023-02-13T07:07:21.076Z,6.70
2023-02-13T07:09:42.578Z,7.20
2023-02-13T07:12:04.852Z,7.23
2023-02-13T07:14:26.316Z,6.50
2023-02-13T07:16:47.800Z,7.20
2023-02-13T07:19:09.299Z,7.13
2023-02-13T07:21:30.771Z,7.73
2023-02-13T07:23:52.772Z,8.53
2023-02-13T07:26:14.229Z,7.60
2023-02-13T07:28:35.750Z,6.53
2023-02-13T07:30:57.877Z,6.63
2023-02-13T07:33:19.630Z,6.33
2023-02-13T07:35:46.851Z,7.00
2023-02-13T07:38:10.928Z,7.13
2023-02-13T07:40:32.430Z,8.03
2023-02-13T07:42:53.858Z,10.47
2023-02-13T07:45:16.140Z,7.77
2023-02-13T07:47:37.707Z,6.93
2023-02-13T07:49:59.161Z,8.40
2023-02-13T07:52:20.633Z,8.20
2023-02-13T07:54:47.515Z,8.93
2023-02-13T07:57:09.277Z,8.23
2023-02-13T07:59:30.735Z,8.77
2023-02-13T08:01:52.194Z,8.40
2023-02-13T08:04:13.685Z,8.73
2023-02-13T08:06:35.149Z,9.53
2023-02-13T08:09:15.049Z,9.40
2023-02-13T08:11:54.921Z,8.97
2023-02-13T08:14:16.390Z,12.80
2023-02-13T08:16:37.869Z,10.50
2023-02-13T08:18:59.346Z,12.30
2023-02-13T08:21:20.797Z,15.17
2023-02-13T08:23:42.303Z,9.53
2023-02-13T08:26:03.968Z,8.73
2023-02-13T08:28:25.479Z,8.17
2023-02-13T08:30:46.999Z,7.20
2023-02-13T08:33:08.527Z,7.63
2023-02-13T08:35:31.647Z,7.90
2023-02-13T08:37:54.093Z,7.63
2023-02-13T08:40:15.680Z,7.07
2023-02-13T08:42:37.854Z,7.63
2023-02-13T08:44:59.725Z,8.20
2023-02-13T08:47:21.167Z,8.47
2023-02-13T08:49:43.089Z,6.83
2023-02-13T08:52:05.739Z,7.00
2023-02-13T08:54:30.642Z,6.70
2023-02-13T08:56:52.106Z,7.13
2023-02-13T08:59:13.590Z,7.07
2023-02-13T09:01:35.011Z,6.97
2023-02-13T09:03:56.512Z,6.57
2023-02-13T09:06:18.089Z,7.10
2023-02-13T09:08:39.532Z,6.63
2023-02-13T09:11:03.399Z,6.90
2023-02-13T09:13:25.203Z,7.97
2023-02-13T09:15:46.650Z,7.00
2023-02-13T09:18:08.436Z,8.13
2023-02-13T09:20:29.884Z,9.10
2023-02-13T09:22:51.630Z,9.60
2023-02-13T09:25:13.091Z,8.53
2023-02-13T09:27:35.788Z,7.53
2023-02-13T09:29:57.243Z,9.33
2023-02-13T09:32:19.432Z,9.60
2023-02-13T09:34:40.883Z,10.60
2023-02-13T09:37:02.315Z,10.90
2023-02-13T09:39:23.936Z,10.67
2023-02-13T09:41:49.355Z,9.27
2023-02-13T09:44:35.239Z,8.93
2023-02-13T09:46:57.397Z,8.07
2023-02-13T09:49:30.515Z,8.57
2023-02-13T09:51:56.485Z,9.13
2023-02-13T09:54:20.626Z,8.20
2023-02-13T09:56:54.976Z,8.73
2023-02-13T09:59:35.410Z,9.53
2023-02-13T10:02:01.345Z,8.50
2023-02-13T10:04:34.898Z,8.07
2023-02-13T10:07:13.125Z,7.70
2023-02-13T10:09:52.258Z,7.33
2023-02-13T10:12:43.368Z,7.07
2023-02-13T10:15:42.211Z,7.10
2023-02-13T10:18:11.102Z,7.03
2023-02-13T10:20:39.645Z,7.27
2023-02-13T10:23:21.328Z,6.83
2023-02-13T10:25:52.025Z,6.73
2023-02-13T10:28:23.538Z,7.17
2023-02-13T10:30:58.752Z,6.57
2023-02-13T10:33:32.053Z,7.27
2023-02-13T10:36:12.586Z,7.13
2023-02-13T10:38:39.986Z,7.60
2023-02-13T10:41:25.243Z,6.03
2023-02-13T10:44:06.641Z,6.23
2023-02-13T10:46:44.019Z,6.90
2023-02-13T10:49:27.836Z,6.30
2023-02-13T10:52:00.639Z,7.43
2023-02-13T10:55:00.434Z,6.90
2023-02-13T10:57:38.861Z,7.63
2023-02-13T11:00:05.980Z,7.73
2023-02-13T11:02:30.559Z,7.17
2023-02-13T11:05:01.303Z,6.93
2023-02-13T11:07:25.072Z,7.80
2023-02-13T11:09:49.446Z,7.70
2023-02-13T11:12:32.153Z,7.33
2023-02-13T11:14:56.634Z,7.77
2023-02-13T11:17:19.201Z,7.40
2023-02-13T11:19:53.914Z,7.60
2023-02-13T11:22:28.282Z,7.57
2023-02-13T11:24:54.641Z,7.67
2023-02-13T11:27:16.330Z,6.97
2023-02-13T11:29:51.085Z,6.77
2023-02-13T11:32:15.483Z,7.70
2023-02-13T11:34:37.009Z,6.77
2023-02-13T11:37:13.430Z,7.27
2023-02-13T11:39:34.872Z,7.50
2023-02-13T11:41:56.381Z,7.00
2023-02-13T11:44:38.127Z,7.03
2023-02-13T11:47:02.239Z,6.90
2023-02-13T11:49:26.618Z,7.00
2023-02-13T11:51:54.123Z,6.60
2023-02-13T11:54:33.737Z,7.30
2023-02-13T11:57:04.669Z,7.33
2023-02-13T11:59:32.383Z,7.17
2023-02-13T12:02:12.282Z,7.50
2023-02-13T12:04:33.700Z,8.50
2023-02-13T12:06:59.828Z,10.40
2023-02-13T12:09:21.279Z,8.70
2023-02-13T12:11:49.611Z,8.80
2023-02-13T12:14:16.584Z,8.27
2023-02-13T12:17:09.579Z,9.20
2023-02-13T12:19:42.310Z,7.63
2023-02-13T12:22:28.658Z,6.53
2023-02-13T12:25:26.480Z,6.80
2023-02-13T12:28:11.706Z,7.10
2023-02-13T12:30:59.523Z,7.00
2023-02-13T12:33:43.754Z,6.23
2023-02-13T12:36:30.038Z,6.83
2023-02-13T12:38:57.518Z,7.57
2023-02-13T12:41:22.784Z,6.40
2023-02-13T12:43:56.362Z,8.17
2023-02-13T12:46:26.598Z,8.53
2023-02-13T12:48:54.080Z,5.87
2023-02-13T12:51:21.329Z,5.90
2023-02-13T12:53:58.272Z,5.80
2023-02-13T12:56:22.467Z,5.57
2023-02-13T12:58:52.807Z,5.93
2023-02-13T13:01:32.964Z,6.30
2023-02-13T13:04:22.595Z,6.40
2023-02-13T13:06:57.002Z,6.10
2023-02-13T13:09:37.242Z,6.90
2023-02-13T13:12:10.620Z,6.20
2023-02-13T13:14:41.267Z,6.83
2023-02-13T13:17:40.879Z,7.57
2023-02-13T13:20:14.389Z,6.30
2023-02-13T13:22:53.577Z,6.57
2023-02-13T13:25:38.312Z,6.47
2023-02-13T13:28:07.860Z,6.00
2023-02-13T13:30:35.528Z,6.10
2023-02-13T13:33:08.487Z,6.13
2023-02-13T13:35:31.348Z,7.03
2023-02-13T13:38:06.627Z,7.07
2023-02-13T13:40:39.901Z,7.00
2023-02-13T13:43:20.444Z,6.83
2023-02-13T13:46:11.469Z,6.67
2023-02-13T13:49:26.269Z,7.40
2023-02-13T13:51:47.742Z,6.33
2023-02-13T13:54:09.119Z,6.90
2023-02-13T13:57:02.153Z,6.57
2023-02-13T13:59:51.522Z,6.50
2023-02-13T14:02:19.333Z,6.10
2023-02-13T14:04:43.541Z,7.13
2023-02-13T14:07:04.968Z,6.33
2023-02-13T14:09:26.321Z,6.40
2023-02-13T14:11:47.815Z,6.80
2023-02-13T14:14:27.607Z,6.57
2023-02-13T14:16:49.317Z,6.70
2023-02-13T14:19:31.147Z,7.33
2023-02-13T14:21:54.674Z,6.87
2023-02-13T14:24:19.598Z,6.67
2023-02-13T14:26:41.498Z,7.20
2023-02-13T14:29:23.281Z,6.00
2023-02-13T14:31:59.597Z,6.10
2023-02-13T14:34:30.662Z,6.77
2023-02-13T14:37:31.210Z,6.87
2023-02-13T14:40:13.181Z,7.20
2023-02-13T14:42:36.031Z,6.80
2023-02-13T14:44:59.943Z,7.17
2023-02-13T14:47:36.032Z,7.23
2023-02-13T14:50:01.583Z,6.87
2023-02-13T14:52:28.954Z,9.70
2023-02-13T14:54:54.151Z,11.40
2023-02-13T14:57:24.806Z,10.20
2023-02-13T14:59:53.140Z,8.83
2023-02-13T15:02:26.516Z,7.77
2023-02-13T15:04:55.345Z,8.23
2023-02-13T15:07:23.392Z,8.00
2023-02-13T15:09:51.783Z,8.73
2023-02-13T15:12:27.913Z,7.80
2023-02-13T15:14:49.336Z,7.20
2023-02-13T15:17:19.080Z,8.50
2023-02-13T15:19:45.557Z,8.60
2023-02-13T15:22:07.414Z,8.60
2023-02-13T15:24:38.212Z,9.03
2023-02-13T15:27:02.819Z,8.87
2023-02-13T15:29:35.304Z,8.97
2023-02-13T15:31:59.740Z,8.20
2023-02-13T15:34:28.922Z,8.90
2023-02-13T15:36:51.023Z,8.90
2023-02-13T15:39:18.645Z,9.47
2023-02-13T15:41:52.482Z,9.37
2023-02-13T15:44:20.680Z,10.00
2023-02-13T15:46:42.327Z,8.80
2023-02-13T15:49:16.706Z,9.23
2023-02-13T15:51:38.492Z,9.13
2023-02-13T15:54:06.325Z,10.30
2023-02-13T15:56:29.126Z,8.73
2023-02-13T15:58:52.541Z,10.00
2023-02-13T16:01:14.638Z,9.77
2023-02-13T16:03:36.913Z,9.57
2023-02-13T16:05:58.784Z,21.53
2023-02-13T16:08:32.265Z,9.97
2023-02-13T16:11:16.302Z,8.57
2023-02-13T16:13:37.909Z,13.80
2023-02-13T16:16:02.197Z,18.37
2023-02-13T16:18:23.763Z,12.17
2023-02-13T16:20:45.587Z,12.77
2023-02-13T16:23:16.262Z,11.67
2023-02-13T16:25:40.277Z,9.97
2023-02-13T16:28:18.403Z,9.27
2023-02-13T16:30:43.206Z,10.17
2023-02-13T16:33:16.717Z,9.77
2023-02-13T16:35:40.808Z,9.40
2023-02-13T16:38:03.112Z,9.63
2023-02-13T16:40:27.561Z,11.03
2023-02-13T16:42:49.005Z,13.50
2023-02-13T16:45:24.136Z,13.20
2023-02-13T16:47:45.712Z,11.07
2023-02-13T16:50:15.166Z,10.73
2023-02-13T16:52:36.642Z,9.63
2023-02-13T16:55:06.321Z,9.57
2023-02-13T16:57:30.807Z,8.77
2023-02-13T17:00:24.452Z,10.17
2023-02-13T17:02:48.445Z,9.50
2023-02-13T17:05:09.937Z,10.83
2023-02-13T17:07:34.518Z,13.50
2023-02-13T17:10:05.016Z,11.23
2023-02-13T17:12:28.315Z,16.77
2023-02-13T17:14:49.804Z,10.30
2023-02-13T17:17:16.709Z,12.43
2023-02-13T17:19:38.184Z,12.27
2023-02-13T17:21:59.630Z,13.60
2023-02-13T17:24:21.148Z,11.20
2023-02-13T17:26:42.605Z,21.73
2023-02-13T17:29:04.049Z,22.20
2023-02-13T17:31:25.594Z,16.97
2023-02-13T17:33:47.177Z,16.10
2023-02-13T17:36:12.585Z,14.93
2023-02-13T17:38:34.000Z,12.43
2023-02-13T17:40:55.626Z,12.37
2023-02-13T17:43:18.701Z,10.40
2023-02-13T17:45:40.761Z,10.77
2023-02-13T17:48:02.218Z,10.50
2023-02-13T17:50:25.229Z,13.40
2023-02-13T17:52:49.068Z,11.53
2023-02-13T17:55:21.223Z,11.30
2023-02-13T17:57:42.930Z,11.50
2023-02-13T18:00:05.026Z,10.77
2023-02-13T18:02:27.814Z,11.10
2023-02-13T18:04:50.052Z,11.73
2023-02-13T18:07:13.465Z,10.63
2023-02-13T18:09:34.953Z,9.80
2023-02-13T18:12:05.028Z,9.80
2023-02-13T18:14:30.077Z,9.13
2023-02-13T18:16:51.489Z,9.30
2023-02-13T18:19:13.997Z,10.63
2023-02-13T18:21:35.450Z,11.47
2023-02-13T18:23:57.033Z,11.13
2023-02-13T18:26:18.506Z,11.60
2023-02-13T18:28:39.925Z,14.37
2023-02-13T18:31:02.054Z,13.57
2023-02-13T18:33:23.731Z,13.53
2023-02-13T18:35:45.150Z,12.67
2023-02-13T18:38:06.577Z,10.53
2023-02-13T18:40:28.117Z,11.10
2023-02-13T18:42:51.062Z,11.27
2023-02-13T18:45:12.722Z,11.37
2023-02-13T18:47:34.132Z,11.97
2023-02-13T18:49:55.646Z,11.90
2023-02-13T18:52:17.081Z,12.03
2023-02-13T18:54:38.754Z,12.53
2023-02-13T18:57:00.203Z,13.87
2023-02-13T18:59:23.054Z,12.10
2023-02-13T19:01:44.987Z,13.00
2023-02-13T19:04:06.791Z,13.13
2023-02-13T19:06:28.379Z,13.63
2023-02-13T19:08:50.212Z,13.73
2023-02-13T19:11:17.525Z,13.17
2023-02-13T19:13:38.954Z,13.17
2023-02-13T19:16:11.733Z,13.40
2023-02-13T19:18:36.790Z,12.77
2023-02-13T19:21:03.063Z,14.37
2023-02-13T19:23:24.485Z,15.23
2023-02-13T19:25:45.926Z,15.37
2023-02-13T19:28:07.340Z,14.57
2023-02-13T19:30:28.873Z,14.33
2023-02-13T19:32:50.295Z,14.60
2023-02-13T19:35:11.716Z,14.37
2023-02-13T19:37:43.051Z,13.63
2023-02-13T19:40:05.901Z,15.87
2023-02-13T19:42:27.360Z,15.87
2023-02-13T19:44:48.844Z,17.23
2023-02-13T19:47:10.372Z,16.33
2023-02-13T19:49:31.799Z,16.33
2023-02-13T19:51:53.243Z,15.80
2023-02-13T19:54:14.757Z,15.93
2023-02-13T19:56:38.726Z,15.10
2023-02-13T19:59:00.154Z,14.93
2023-02-13T20:01:24.017Z,14.33
2023-02-13T20:03:45.540Z,14.90
2023-02-13T20:06:12.808Z,14.30
2023-02-13T20:08:34.704Z,14.40
2023-02-13T20:10:56.400Z,13.33
2023-02-13T20:13:18.204Z,13.13
2023-02-13T20:15:40.967Z,12.87
2023-02-13T20:18:02.448Z,13.43
2023-02-13T20:20:23.869Z,14.30
2023-02-13T20:22:47.766Z,13.50
2023-02-13T20:25:09.206Z,14.47
2023-02-13T20:27:30.657Z,14.03
2023-02-13T20:29:58.895Z,14.40
2023-02-13T20:32:28.067Z,15.57
2023-02-13T20:34:59.423Z,16.13
2023-02-13T20:37:21.387Z,16.30
2023-02-13T20:39:43.972Z,15.90
2023-02-13T20:42:05.561Z,15.40
2023-02-13T20:44:28.169Z,14.87
2023-02-13T20:46:51.004Z,15.90
2023-02-13T20:49:18.723Z,15.20
2023-02-13T20:51:40.192Z,14.00
2023-02-13T20:54:02.269Z,14.13
2023-02-13T20:56:25.929Z,12.27
2023-02-13T20:58:49.182Z,13.37
2023-02-13T21:01:13.513Z,14.47
2023-02-13T21:03:35.000Z,14.50
2023-02-13T21:05:56.458Z,14.00
2023-02-13T21:08:18.313Z,15.20
2023-02-13T21:10:39.737Z,14.40
2023-02-13T21:13:01.155Z,13.53
2023-02-13T21:15:22.595Z,14.23
2023-02-13T21:17:44.277Z,13.73
2023-02-13T21:20:06.418Z,14.10
2023-02-13T21:22:27.865Z,14.87
2023-02-13T21:24:49.770Z,15.43
2023-02-13T21:27:11.350Z,15.00
2023-02-13T21:29:33.096Z,16.17
2023-02-13T21:31:54.583Z,17.00
2023-02-13T21:34:17.322Z,17.53
2023-02-13T21:36:39.450Z,19.00
2023-02-13T21:39:01.163Z,17.33
2023-02-13T21:41:22.862Z,16.80
2023-02-13T21:43:47.991Z,18.07
2023-02-13T21:46:11.831Z,19.30
2023-02-13T21:48:33.523Z,20.30
2023-02-13T21:50:54.958Z,21.07
2023-02-13T21:53:16.393Z,18.50
2023-02-13T21:55:37.814Z,17.83
2023-02-13T21:57:59.227Z,20.43
2023-02-13T22:00:20.844Z,18.83
2023-02-13T22:02:42.350Z,18.80
2023-02-13T22:05:04.165Z,19.27
2023-02-13T22:07:25.607Z,18.83
2023-02-13T22:09:49.970Z,17.07
2023-02-13T22:12:11.467Z,15.80
2023-02-13T22:14:32.925Z,20.73
2023-02-13T22:16:54.417Z,20.33
2023-02-13T22:19:16.190Z,20.57
2023-02-13T22:21:37.635Z,22.13
2023-02-13T22:23:59.207Z,20.40
2023-02-13T22:26:24.186Z,19.93
2023-02-13T22:28:46.007Z,19.07
2023-02-13T22:31:09.007Z,20.50
2023-02-13T22:33:30.587Z,21.50
2023-02-13T22:35:52.332Z,19.80
2023-02-13T22:38:13.865Z,19.83
2023-02-13T22:40:36.080Z,18.50
2023-02-13T22:42:57.535Z,16.90
2023-02-13T22:45:18.961Z,18.77
2023-02-13T22:47:40.449Z,20.20
2023-02-13T22:50:01.864Z,19.57
2023-02-13T22:52:23.327Z,22.53
2023-02-13T22:54:44.722Z,20.30
2023-02-13T22:57:06.485Z,24.47
2023-02-13T22:59:28.356Z,28.40
2023-02-13T23:01:49.890Z,33.40
2023-02-13T23:04:12.581Z,21.63
2023-02-13T23:06:34.084Z,23.20
2023-02-13T23:08:56.017Z,19.53
2023-02-13T23:11:36.727Z,17.47
2023-02-13T23:13:58.221Z,14.97
2023-02-13T23:16:20.014Z,16.57
2023-02-13T23:18:41.504Z,17.47
2023-02-13T23:21:07.731Z,19.67
2023-02-13T23:23:29.297Z,17.77
2023-02-13T23:25:50.742Z,19.80
2023-02-13T23:28:12.198Z,17.40
2023-02-13T23:30:34.616Z,19.63
2023-02-13T23:32:57.445Z,17.47
2023-02-13T23:35:19.012Z,16.80
2023-02-13T23:37:40.534Z,18.63
2023-02-13T23:40:02.196Z,17.33
2023-02-13T23:42:23.705Z,17.47
2023-02-13T23:44:45.187Z,17.17
2023-02-13T23:47:06.793Z,17.93
2023-02-13T23:49:28.257Z,17.57
2023-02-13T23:51:49.810Z,17.73
2023-02-13T23:54:20.481Z,18.90
2023-02-13T23:56:42.269Z,18.87
2023-02-13T23:59:03.859Z,16.87
